Time;durP1;ratioP1;P1;durP2;ratioP2;P2;SDS_P1;SDS_P2;PMS_P1;PMS_P2;Temp;Humidity;BMP_temperature;BMP_pressure;BME280_temperature;BME280_humidity;BME280_pressure;Samples;Min_cycle;Max_cycle;Signal;HPM_P1;HPM_P2
2022/07/14 00:00:18;;;;;;;0.80;0.68;;;19.10;88.30;;;;;;5069812;28;20135;-69
2022/07/14 00:02:44;;;;;;;1.20;0.60;;;19.20;88.90;;;;;;5067046;28;20030;-69
2022/07/14 00:05:10;;;;;;;0.98;0.65;;;19.10;89.70;;;;;;5064686;28;20040;-69
2022/07/14 00:07:35;;;;;;;4.35;0.70;;;19.10;90.40;;;;;;5072315;28;20032;-69
2022/07/14 00:10:01;;;;;;;1.15;0.60;;;19.00;90.80;;;;;;5067391;28;20570;-69
2022/07/14 00:12:27;;;;;;;0.93;0.68;;;19.00;91.00;;;;;;5066933;28;20504;-69
2022/07/14 00:14:53;;;;;;;0.95;0.68;;;18.90;90.70;;;;;;5073162;28;20462;-69
2022/07/14 00:17:18;;;;;;;0.80;0.63;;;18.90;90.60;;;;;;5071285;28;20036;-69
2022/07/14 00:19:44;;;;;;;3.33;0.70;;;18.80;90.50;;;;;;5067623;28;20039;-69
2022/07/14 00:22:09;;;;;;;1.23;0.70;;;18.80;90.60;;;;;;5068734;28;20032;-69
2022/07/14 00:24:35;;;;;;;0.70;0.70;;;18.80;90.90;;;;;;5069744;28;20127;-69
2022/07/14 00:27:01;;;;;;;1.23;0.70;;;18.70;91.30;;;;;;5070827;28;20052;-69
2022/07/14 00:29:26;;;;;;;0.60;0.60;;;18.60;91.40;;;;;;5075053;28;20044;-69
2022/07/14 00:31:52;;;;;;;2.78;0.60;;;18.60;91.30;;;;;;5066723;28;20063;-69
2022/07/14 00:34:17;;;;;;;0.80;0.60;;;18.50;91.40;;;;;;5073754;28;20044;-69
2022/07/14 00:36:43;;;;;;;3.35;0.70;;;18.50;91.30;;;;;;5061436;28;20027;-70
2022/07/14 00:39:09;;;;;;;1.58;0.95;;;18.50;91.60;;;;;;5073109;28;20044;-69
2022/07/14 00:41:34;;;;;;;1.05;0.60;;;18.50;91.90;;;;;;5073070;28;20028;-69
2022/07/14 00:44:01;;;;;;;2.47;0.60;;;18.50;91.90;;;;;;5074870;28;20051;-69
2022/07/14 00:46:27;;;;;;;0.75;0.75;;;18.50;92.00;;;;;;5068711;28;20148;-69
2022/07/14 00:48:52;;;;;;;16.50;1.77;;;18.50;92.10;;;;;;5078658;28;20453;-69
2022/07/14 00:51:18;;;;;;;37.25;2.55;;;18.40;91.90;;;;;;5074476;28;20039;-70
2022/07/14 00:53:49;;;;;;;10.45;0.90;;;18.40;92.30;;;;;;5070847;28;20064;-69
2022/07/14 00:56:14;;;;;;;0.70;0.65;;;18.40;92.40;;;;;;5071505;28;20050;-70
2022/07/14 00:58:40;;;;;;;1.13;0.77;;;18.40;93.10;;;;;;5072104;28;20462;-69
2022/07/14 01:01:06;;;;;;;1.05;0.80;;;18.40;93.00;;;;;;5069159;28;20508;-69
2022/07/14 01:03:32;;;;;;;1.50;0.73;;;18.40;93.40;;;;;;5073311;28;20040;-69
2022/07/14 01:05:57;;;;;;;1.75;0.73;;;18.30;93.60;;;;;;5064532;28;20020;-69
2022/07/14 01:08:23;;;;;;;1.42;0.63;;;18.30;94.00;;;;;;5065619;28;20445;-69
2022/07/14 01:10:48;;;;;;;0.52;0.52;;;18.20;94.20;;;;;;5060962;28;20048;-69
2022/07/14 01:13:14;;;;;;;1.48;0.60;;;18.30;94.20;;;;;;5049221;28;20038;-69
2022/07/14 01:15:40;;;;;;;0.65;0.65;;;18.30;94.00;;;;;;5065665;28;20032;-70
2022/07/14 01:18:05;;;;;;;0.70;0.60;;;18.30;94.50;;;;;;5066522;28;20115;-69
2022/07/14 01:20:31;;;;;;;1.02;0.55;;;18.30;94.60;;;;;;5071315;28;20029;-69
2022/07/14 01:22:57;;;;;;;0.50;0.50;;;18.20;94.60;;;;;;5070645;28;20031;-69
2022/07/14 01:25:22;;;;;;;0.70;0.50;;;18.20;95.10;;;;;;5055181;28;20044;-69
2022/07/14 01:27:49;;;;;;;0.63;0.60;;;18.20;95.60;;;;;;5065495;28;20039;-69
2022/07/14 01:30:15;;;;;;;0.73;0.60;;;18.20;96.00;;;;;;5074065;28;20488;-69
2022/07/14 01:32:40;;;;;;;0.85;0.75;;;18.10;96.00;;;;;;5070455;28;20036;-69
2022/07/14 01:35:07;;;;;;;0.70;0.70;;;18.10;96.40;;;;;;5057701;28;20068;-69
2022/07/14 01:37:33;;;;;;;1.58;0.50;;;18.00;96.30;;;;;;5068745;28;20047;-70
2022/07/14 01:40:01;;;;;;;2.05;0.45;;;18.00;96.30;;;;;;5071374;28;20732;-69
2022/07/14 01:42:26;;;;;;;0.75;0.60;;;18.00;96.20;;;;;;5071876;28;20031;-69
2022/07/14 01:44:52;;;;;;;0.57;0.47;;;18.00;96.10;;;;;;5069824;28;20048;-69
2022/07/14 01:47:18;;;;;;;0.70;0.70;;;18.00;96.20;;;;;;5066200;28;20106;-69
2022/07/14 01:49:44;;;;;;;0.95;0.60;;;18.00;96.20;;;;;;5072293;28;20103;-69
2022/07/14 01:52:09;;;;;;;0.68;0.60;;;18.00;96.00;;;;;;5067214;28;20106;-70
2022/07/14 01:54:35;;;;;;;2.65;0.73;;;18.00;95.90;;;;;;5064129;28;20044;-69
2022/07/14 01:57:00;;;;;;;0.88;0.50;;;18.00;95.30;;;;;;5070631;28;20067;-69
2022/07/14 01:59:26;;;;;;;2.47;0.70;;;18.00;95.50;;;;;;5072937;28;20124;-69
2022/07/14 02:01:52;;;;;;;2.05;0.82;;;18.00;95.90;;;;;;5072797;28;20494;-69
2022/07/14 02:04:20;;;;;;;2.25;0.70;;;18.00;95.60;;;;;;5062210;28;21147;-69
2022/07/14 02:06:55;;;;;;;1.35;0.65;;;18.00;95.30;;;;;;5074201;28;20089;-69
2022/07/14 02:09:21;;;;;;;2.15;0.52;;;18.00;95.20;;;;;;5071769;28;20503;-69
2022/07/14 02:14:33;;;;;;;0.77;0.47;;;17.90;95.80;;;;;;5067155;28;20115;-69
2022/07/14 02:17:00;;;;;;;1.60;0.50;;;17.80;96.00;;;;;;5067208;28;20082;-69
2022/07/14 02:19:25;;;;;;;1.05;0.68;;;17.70;95.90;;;;;;5066585;28;20143;-69
2022/07/14 02:21:52;;;;;;;2.38;0.57;;;17.60;95.90;;;;;;5052727;28;20043;-69
2022/07/14 02:24:18;;;;;;;3.35;0.57;;;17.60;95.80;;;;;;5063356;28;20040;-69
2022/07/14 02:26:44;;;;;;;4.57;0.60;;;17.60;96.10;;;;;;5060303;28;20037;-69
2022/07/14 02:29:10;;;;;;;2.13;0.70;;;17.60;96.20;;;;;;5070156;28;20031;-69
2022/07/14 02:31:36;;;;;;;0.55;0.52;;;17.70;95.50;;;;;;5065866;28;20419;-69
2022/07/14 02:34:04;;;;;;;1.48;0.60;;;17.70;95.40;;;;;;5073244;28;20075;-69
2022/07/14 02:36:30;;;;;;;1.23;0.68;;;17.70;95.90;;;;;;5070183;28;20107;-69
2022/07/14 02:38:56;;;;;;;4.40;0.70;;;17.60;95.90;;;;;;5069167;28;20127;-69
2022/07/14 02:41:22;;;;;;;0.40;0.40;;;17.50;96.10;;;;;;5072386;28;20063;-69
2022/07/14 02:43:48;;;;;;;2.13;0.70;;;17.40;96.40;;;;;;5065646;28;20083;-69
2022/07/14 02:46:13;;;;;;;1.05;0.50;;;17.40;96.20;;;;;;5069165;28;20098;-70
2022/07/14 02:48:39;;;;;;;2.88;0.68;;;17.40;96.10;;;;;;5063963;28;20447;-69
2022/07/14 02:51:07;;;;;;;1.90;0.63;;;17.40;96.00;;;;;;5068086;28;20025;-69
2022/07/14 02:53:34;;;;;;;3.67;0.70;;;17.40;96.00;;;;;;5053563;28;20032;-69
2022/07/14 02:56:00;;;;;;;1.02;0.70;;;17.30;96.10;;;;;;5068108;28;20119;-70
2022/07/14 02:58:26;;;;;;;1.42;0.40;;;17.40;96.00;;;;;;5070788;28;20073;-70
2022/07/14 03:00:52;;;;;;;2.30;1.42;;;17.40;96.20;;;;;;5065475;28;20037;-69
2022/07/14 03:03:19;;;;;;;0.93;0.93;;;17.50;95.90;;;;;;5068377;28;20494;-69
2022/07/14 03:05:45;;;;;;;3.60;0.65;;;17.50;95.70;;;;;;5071773;28;20063;-69
2022/07/14 03:08:12;;;;;;;4.65;0.88;;;17.50;96.00;;;;;;5071147;28;20069;-69
2022/07/14 03:10:38;;;;;;;1.10;0.50;;;17.40;96.00;;;;;;5064066;28;20044;-69
2022/07/14 03:13:04;;;;;;;2.92;0.40;;;17.40;96.40;;;;;;5068766;28;20039;-69
2022/07/14 03:15:29;;;;;;;0.90;0.60;;;17.30;96.60;;;;;;5068130;28;20028;-69
2022/07/14 03:17:55;;;;;;;1.45;0.60;;;17.20;96.70;;;;;;5070793;28;20044;-69
2022/07/14 03:20:21;;;;;;;2.60;0.63;;;17.20;96.70;;;;;;5066766;28;20068;-69
2022/07/14 03:22:47;;;;;;;1.75;0.85;;;17.20;96.60;;;;;;5069479;28;20051;-69
2022/07/14 03:25:13;;;;;;;2.65;0.70;;;17.20;96.80;;;;;;5065837;28;20083;-69
2022/07/14 03:27:40;;;;;;;0.55;0.55;;;17.20;96.80;;;;;;5061344;28;20093;-69
2022/07/14 03:30:07;;;;;;;0.40;0.40;;;17.20;96.70;;;;;;5068761;28;20040;-69
2022/07/14 03:32:33;;;;;;;11.32;1.00;;;17.20;96.20;;;;;;5069098;28;20484;-69
2022/07/14 03:34:59;;;;;;;1.67;0.70;;;17.20;96.20;;;;;;5069167;28;20115;-70
2022/07/14 03:37:25;;;;;;;4.40;0.75;;;17.20;95.70;;;;;;5074147;28;20123;-70
2022/07/14 03:39:51;;;;;;;0.55;0.50;;;17.40;94.50;;;;;;5073646;28;20044;-69
2022/07/14 03:42:16;;;;;;;1.27;0.50;;;17.80;93.10;;;;;;5076158;28;20111;-69
2022/07/14 03:44:44;;;;;;;1.80;0.55;;;18.10;92.10;;;;;;5077389;28;20099;-69
2022/07/14 03:47:10;;;;;;;3.38;0.90;;;18.50;91.40;;;;;;5074128;28;20028;-69
2022/07/14 03:49:36;;;;;;;2.22;0.75;;;18.70;91.00;;;;;;5071582;28;20665;-69
2022/07/14 03:52:02;;;;;;;1.30;0.60;;;18.90;90.50;;;;;;5074936;28;20036;-70
2022/07/14 03:54:27;;;;;;;9.98;1.15;;;19.10;90.00;;;;;;5071421;28;20071;-69
2022/07/14 03:56:53;;;;;;;3.63;0.50;;;19.20;89.20;;;;;;5069175;28;20039;-69
2022/07/14 03:59:18;;;;;;;2.10;0.60;;;19.40;88.80;;;;;;5071549;28;20035;-69
2022/07/14 04:01:44;;;;;;;2.40;0.80;;;19.60;88.20;;;;;;5072580;28;20041;-69
2022/07/14 04:04:10;;;;;;;2.95;0.60;;;19.70;87.50;;;;;;5070888;28;20036;-69
2022/07/14 04:06:35;;;;;;;2.00;1.08;;;19.80;86.80;;;;;;5072978;28;20036;-69
2022/07/14 04:09:01;;;;;;;2.08;0.80;;;20.00;86.30;;;;;;5067952;28;20052;-69
2022/07/14 04:11:27;;;;;;;1.92;0.50;;;20.00;85.90;;;;;;5075691;28;20067;-69
2022/07/14 04:13:53;;;;;;;1.48;0.60;;;20.10;85.70;;;;;;5068038;28;20143;-70
2022/07/14 04:16:19;;;;;;;4.05;0.60;;;20.20;85.70;;;;;;5075116;28;20036;-69
2022/07/14 04:18:44;;;;;;;1.02;0.70;;;20.20;85.40;;;;;;5074058;28;20043;-69
2022/07/14 04:21:10;;;;;;;1.45;0.70;;;20.30;85.40;;;;;;5076605;28;20783;-69
2022/07/14 04:23:37;;;;;;;2.80;0.77;;;20.40;85.30;;;;;;5072934;28;20047;-69
2022/07/14 04:26:03;;;;;;;2.78;0.73;;;20.50;84.90;;;;;;5071554;28;20097;-69
2022/07/14 04:28:29;;;;;;;5.38;0.60;;;20.60;84.90;;;;;;5075419;28;20024;-69
2022/07/14 04:30:55;;;;;;;2.40;0.50;;;20.70;84.60;;;;;;5065028;28;20032;-69
2022/07/14 04:33:21;;;;;;;1.13;0.60;;;20.90;84.50;;;;;;5076300;28;20042;-69
2022/07/14 04:35:48;;;;;;;3.22;0.70;;;21.00;84.50;;;;;;5072219;28;20024;-70
2022/07/14 04:38:14;;;;;;;0.63;0.50;;;21.10;84.10;;;;;;5073360;28;20032;-69
2022/07/14 04:40:49;;;;;;;1.25;0.60;;;21.20;83.80;;;;;;5066510;28;20059;-70
2022/07/14 04:43:16;;;;;;;2.83;0.80;;;21.30;83.90;;;;;;5075133;28;20402;-69
2022/07/14 04:45:42;;;;;;;0.77;0.70;;;21.40;84.10;;;;;;5063031;28;20037;-69
2022/07/14 04:48:07;;;;;;;1.05;0.60;;;21.50;84.20;;;;;;5070944;28;20040;-69
2022/07/14 04:53:18;;;;;;;1.05;0.80;;;21.60;84.90;;;;;;5068116;28;20048;-69
2022/07/14 04:55:43;;;;;;;4.20;0.60;;;21.70;84.60;;;;;;5067584;28;20032;-70
2022/07/14 04:58:09;;;;;;;0.57;0.57;;;21.80;84.40;;;;;;5073063;28;20051;-69
2022/07/14 05:00:35;;;;;;;1.02;0.70;;;21.90;84.00;;;;;;5069599;28;20048;-69
2022/07/14 05:03:01;;;;;;;4.32;0.75;;;22.00;84.20;;;;;;5072357;28;20681;-69
2022/07/14 05:05:26;;;;;;;3.80;0.70;;;22.10;84.30;;;;;;5053403;28;20043;-69
2022/07/14 05:07:52;;;;;;;2.60;0.70;;;22.10;84.10;;;;;;5071005;28;20032;-69
2022/07/14 05:10:18;;;;;;;4.20;0.80;;;22.20;84.20;;;;;;5066452;28;20051;-69
2022/07/14 05:12:43;;;;;;;2.50;0.60;;;22.30;84.20;;;;;;5068680;28;20086;-70
2022/07/14 05:15:09;;;;;;;2.30;0.70;;;22.40;83.50;;;;;;5067696;28;20044;-69
2022/07/14 05:17:35;;;;;;;3.78;0.70;;;22.60;83.00;;;;;;5073380;28;20098;-69
2022/07/14 05:20:01;;;;;;;2.85;0.60;;;22.70;83.20;;;;;;5049280;28;20042;-69
2022/07/14 05:22:27;;;;;;;1.30;0.70;;;22.80;83.20;;;;;;5071577;28;20103;-69
2022/07/14 05:24:53;;;;;;;2.28;0.70;;;22.90;82.00;;;;;;5064546;28;20055;-69
2022/07/14 05:27:19;;;;;;;1.15;0.57;;;23.10;82.50;;;;;;5066742;28;20492;-69
2022/07/14 05:29:44;;;;;;;1.75;0.60;;;23.20;86.30;;;;;;5069713;28;20047;-70
2022/07/14 05:32:10;;;;;;;1.98;0.63;;;23.40;86.90;;;;;;5067405;28;20151;-70
2022/07/14 05:34:43;;;;;;;3.95;0.50;;;23.40;87.50;;;;;;5071233;28;20028;-69
2022/07/14 05:37:09;;;;;;;1.85;0.52;;;23.40;87.80;;;;;;5052672;28;20079;-70
2022/07/14 05:39:35;;;;;;;1.88;1.10;;;23.50;88.70;;;;;;5063429;28;20436;-69
2022/07/14 05:42:00;;;;;;;0.50;0.50;;;23.50;87.00;;;;;;5068923;28;20114;-70
2022/07/14 05:44:26;;;;;;;4.57;0.90;;;23.60;87.70;;;;;;5074293;28;20045;-70
2022/07/14 05:46:52;;;;;;;3.13;0.70;;;23.60;86.70;;;;;;5061888;28;20032;-69
2022/07/14 05:49:17;;;;;;;1.65;0.55;;;23.70;87.10;;;;;;5066682;28;20033;-70
2022/07/14 05:51:43;;;;;;;2.28;0.50;;;23.70;87.40;;;;;;5066380;28;20040;-69
2022/07/14 05:54:08;;;;;;;2.35;0.80;;;23.80;87.60;;;;;;5066738;28;20047;-70
2022/07/14 05:56:34;;;;;;;1.63;0.65;;;23.80;87.90;;;;;;5061256;28;20040;-70
2022/07/14 05:59:00;;;;;;;1.00;0.65;;;23.90;87.50;;;;;;5062925;28;20032;-69
2022/07/14 06:01:25;;;;;;;1.75;0.70;;;24.00;86.90;;;;;;5064474;28;20036;-69
2022/07/14 06:03:56;;;;;;;3.67;0.80;;;24.10;86.10;;;;;;5076917;28;20694;-69
2022/07/14 06:06:23;;;;;;;0.88;0.60;;;24.20;85.80;;;;;;5073119;28;20128;-70
2022/07/14 06:08:49;;;;;;;2.00;0.57;;;24.30;82.40;;;;;;5071065;28;20040;-70
2022/07/14 06:11:15;;;;;;;1.23;0.70;;;24.50;78.10;;;;;;5062899;28;20548;-70
2022/07/14 06:13:42;;;;;;;0.90;0.52;;;24.70;76.10;;;;;;5073642;28;20067;-70
2022/07/14 06:16:09;;;;;;;2.78;0.40;;;24.80;75.40;;;;;;5080450;28;20466;-70
2022/07/14 06:18:35;;;;;;;1.45;0.60;;;25.00;74.80;;;;;;5075203;28;20033;-71
2022/07/14 06:21:01;;;;;;;1.13;0.50;;;25.10;72.70;;;;;;5062176;28;20530;-70
2022/07/14 06:23:26;;;;;;;1.25;0.50;;;25.30;72.30;;;;;;5066576;28;20040;-70
2022/07/14 06:25:52;;;;;;;2.33;0.55;;;25.40;70.70;;;;;;5072036;28;20056;-69
2022/07/14 06:28:18;;;;;;;0.98;0.50;;;25.50;71.50;;;;;;5072117;28;20565;-70
2022/07/14 06:30:44;;;;;;;0.57;0.55;;;25.50;70.40;;;;;;5070326;28;20032;-70
2022/07/14 06:33:10;;;;;;;0.93;0.75;;;25.50;70.50;;;;;;5070821;28;20044;-71
2022/07/14 06:35:43;;;;;;;4.50;0.73;;;25.50;69.70;;;;;;5065117;28;20103;-70
2022/07/14 06:38:08;;;;;;;0.68;0.50;;;25.50;69.10;;;;;;5059703;28;20044;-70
2022/07/14 06:40:34;;;;;;;1.20;0.40;;;25.40;69.20;;;;;;5074520;28;20440;-71
2022/07/14 06:43:00;;;;;;;0.57;0.47;;;25.30;67.80;;;;;;5068331;28;20408;-71
2022/07/14 06:45:26;;;;;;;0.43;0.43;;;25.20;67.40;;;;;;5066560;28;20045;-69
2022/07/14 06:47:51;;;;;;;3.10;0.40;;;25.20;67.30;;;;;;5067423;28;20025;-70
2022/07/14 06:50:17;;;;;;;1.65;0.98;;;25.10;67.80;;;;;;5065748;28;20507;-71
2022/07/14 06:52:43;;;;;;;3.22;0.50;;;25.10;69.00;;;;;;5064498;28;20850;-71
2022/07/14 06:55:09;;;;;;;14.05;1.08;;;25.10;68.80;;;;;;5057625;28;20040;-71
2022/07/14 06:57:35;;;;;;;0.52;0.50;;;25.10;67.60;;;;;;5049684;28;20163;-71
2022/07/14 07:00:03;;;;;;;6.53;0.70;;;25.10;67.70;;;;;;5037214;28;20029;-71
2022/07/14 07:02:29;;;;;;;1.13;0.50;;;25.10;69.00;;;;;;5040777;28;20791;-72
2022/07/14 07:07:39;;;;;;;1.88;0.50;;;25.20;69.70;;;;;;5075505;28;20078;-72
2022/07/14 07:10:05;;;;;;;3.60;0.68;;;25.20;70.00;;;;;;5071433;28;20041;-72
2022/07/14 07:12:31;;;;;;;3.97;0.60;;;25.20;69.50;;;;;;5072832;28;20267;-72
2022/07/14 07:14:56;;;;;;;2.58;0.43;;;25.30;70.10;;;;;;5069933;28;20086;-72
2022/07/14 07:17:22;;;;;;;0.73;0.63;;;25.30;70.30;;;;;;5054760;28;20040;-71
2022/07/14 07:19:48;;;;;;;0.47;0.40;;;25.30;68.70;;;;;;5072510;28;20032;-71
2022/07/14 07:22:14;;;;;;;2.95;0.77;;;25.40;68.60;;;;;;5068284;28;20048;-72
2022/07/14 07:24:40;;;;;;;2.42;0.65;;;25.40;67.60;;;;;;5068539;28;20190;-70
2022/07/14 07:27:06;;;;;;;0.70;0.40;;;25.40;67.90;;;;;;5063498;28;20122;-73
2022/07/14 07:29:32;;;;;;;0.75;0.47;;;25.40;67.80;;;;;;5043420;28;20127;-73
2022/07/14 07:31:57;;;;;;;1.75;0.50;;;25.40;67.60;;;;;;5064853;28;20036;-73
2022/07/14 07:34:23;;;;;;;2.33;0.73;;;25.30;67.80;;;;;;5052588;28;20039;-72
2022/07/14 07:36:49;;;;;;;0.50;0.50;;;25.30;67.50;;;;;;5058230;28;20036;-72
2022/07/14 07:39:14;;;;;;;0.30;0.30;;;25.30;67.70;;;;;;5068575;28;20028;-72
2022/07/14 07:41:40;;;;;;;0.57;0.32;;;25.30;67.50;;;;;;5069098;28;20036;-72
2022/07/14 07:44:06;;;;;;;1.20;0.45;;;25.30;67.40;;;;;;5071499;28;20084;-72
2022/07/14 07:46:32;;;;;;;3.65;0.50;;;25.30;66.60;;;;;;5078488;28;20040;-73
2022/07/14 07:48:58;;;;;;;3.05;0.50;;;25.30;67.10;;;;;;5055224;28;20024;-73
2022/07/14 07:51:23;;;;;;;1.42;0.50;;;25.20;67.30;;;;;;5049900;28;20609;-73
2022/07/14 07:53:49;;;;;;;1.52;0.30;;;25.20;67.20;;;;;;5072282;28;20111;-72
2022/07/14 07:56:15;;;;;;;0.52;0.52;;;25.20;67.20;;;;;;5073455;28;20043;-73
2022/07/14 07:58:40;;;;;;;0.68;0.40;;;25.20;66.80;;;;;;5073652;28;20051;-72
2022/07/14 08:01:06;;;;;;;2.70;0.57;;;25.20;67.00;;;;;;5064965;28;20044;-72
2022/07/14 08:03:32;;;;;;;3.35;1.00;;;25.10;66.70;;;;;;5062104;28;20123;-74
2022/07/14 08:05:58;;;;;;;2.88;0.50;;;25.20;66.80;;;;;;5069790;28;20127;-73
2022/07/14 08:08:23;;;;;;;2.72;0.50;;;25.10;66.50;;;;;;5074601;28;20028;-72
2022/07/14 08:10:49;;;;;;;4.45;1.00;;;25.10;66.00;;;;;;5071099;28;20070;-73
2022/07/14 08:13:14;;;;;;;0.68;0.50;;;25.10;65.90;;;;;;5073587;28;20094;-72
2022/07/14 08:15:40;;;;;;;1.05;0.60;;;25.20;67.10;;;;;;5072559;28;20070;-70
2022/07/14 08:18:07;;;;;;;1.90;0.63;;;25.20;67.10;;;;;;5072851;28;20596;-73
2022/07/14 08:20:34;;;;;;;0.65;0.50;;;25.30;67.50;;;;;;5073690;28;20045;-74
2022/07/14 08:23:00;;;;;;;1.27;0.52;;;25.40;67.30;;;;;;5074933;28;20062;-71
2022/07/14 08:25:27;;;;;;;1.50;0.50;;;25.50;66.30;;;;;;5065726;28;20063;-72
2022/07/14 08:27:53;;;;;;;6.25;0.70;;;25.50;66.20;;;;;;5070226;28;20040;-75
2022/07/14 08:30:20;;;;;;;3.83;0.80;;;25.60;67.50;;;;;;5062317;28;20036;-72
2022/07/14 08:32:51;;;;;;;1.95;0.43;;;25.70;66.00;;;;;;5066793;28;20034;-72
2022/07/14 08:35:19;;;;;;;1.17;0.50;;;25.90;63.50;;;;;;5069459;28;21387;-75
2022/07/14 08:37:45;;;;;;;5.15;0.60;;;26.00;64.60;;;;;;5065953;28;20316;-72
2022/07/14 08:40:15;;;;;;;3.67;0.65;;;26.20;62.70;;;;;;5058957;28;20029;-71
2022/07/14 08:42:44;;;;;;;4.25;0.40;;;26.40;63.60;;;;;;5048307;28;20139;-72
2022/07/14 08:45:12;;;;;;;0.73;0.50;;;26.60;62.00;;;;;;5067762;28;20052;-71
2022/07/14 08:47:38;;;;;;;1.13;0.40;;;26.80;60.60;;;;;;5068365;28;20032;-72
2022/07/14 08:50:06;;;;;;;6.50;0.50;;;27.00;59.80;;;;;;5067452;28;20147;-72
2022/07/14 08:52:33;;;;;;;2.13;0.60;;;27.10;60.90;;;;;;5071696;28;20551;-74
2022/07/14 08:54:59;;;;;;;2.78;0.40;;;27.10;60.10;;;;;;5068600;28;20036;-71
2022/07/14 08:57:26;;;;;;;1.77;0.30;;;27.10;59.30;;;;;;5071607;28;20028;-72
2022/07/14 08:59:51;;;;;;;1.92;0.52;;;27.20;60.00;;;;;;5056450;28;20036;-72
2022/07/14 09:02:17;;;;;;;1.20;0.50;;;27.30;58.50;;;;;;5068667;28;21095;-71
2022/07/14 09:04:46;;;;;;;1.50;0.50;;;27.50;58.10;;;;;;5068510;28;20396;-73
2022/07/14 09:07:30;;;;;;;4.20;1.17;;;27.80;56.90;;;;;;5068215;28;20115;-73
2022/07/14 09:10:12;;;;;;;4.43;0.50;;;28.00;56.00;;;;;;5063348;28;20070;-73
2022/07/14 09:12:38;;;;;;;0.98;0.45;;;28.30;54.00;;;;;;5064773;28;20417;-71
2022/07/14 09:17:56;;;;;;;2.55;0.40;;;28.60;55.40;;;;;;5066682;28;20147;-70
2022/07/14 09:20:25;;;;;;;3.90;0.52;;;28.70;55.40;;;;;;5070742;28;20044;-69
2022/07/14 09:22:59;;;;;;;1.30;0.40;;;28.70;54.50;;;;;;5068163;28;20043;-70
2022/07/14 09:25:28;;;;;;;2.00;0.45;;;28.90;52.50;;;;;;5061144;28;20169;-69
2022/07/14 09:27:54;;;;;;;2.47;0.50;;;29.00;52.70;;;;;;5074093;28;20032;-70
2022/07/14 09:30:21;;;;;;;1.35;0.40;;;29.10;53.10;;;;;;5062946;28;20114;-70
2022/07/14 09:32:58;;;;;;;0.30;0.30;;;29.20;50.20;;;;;;5071132;28;20043;-69
2022/07/14 09:35:33;;;;;;;1.17;0.40;;;29.20;49.70;;;;;;5070542;28;20033;-70
2022/07/14 09:37:59;;;;;;;0.85;0.55;;;29.40;51.70;;;;;;5070653;28;20119;-70
2022/07/14 09:40:30;;;;;;;2.00;0.47;;;29.60;51.70;;;;;;5069569;28;20039;-71
2022/07/14 09:42:57;;;;;;;1.42;0.30;;;29.80;48.00;;;;;;5057799;28;20039;-71
2022/07/14 09:45:29;;;;;;;0.50;0.50;;;29.70;47.50;;;;;;5050061;28;20047;-70
2022/07/14 09:48:07;;;;;;;0.40;0.40;;;29.70;49.90;;;;;;5064228;28;20036;-70
2022/07/14 09:50:57;;;;;;;3.03;0.60;;;29.80;48.20;;;;;;5071973;28;20094;-71
2022/07/14 09:53:24;;;;;;;0.57;0.40;;;29.80;49.50;;;;;;5069687;28;20040;-69
2022/07/14 09:55:56;;;;;;;0.47;0.30;;;29.90;46.60;;;;;;5069375;28;20032;-70
2022/07/14 09:58:22;;;;;;;;;;;29.90;46.20;;;;;;5067752;28;20396;-69
2022/07/14 10:01:00;;;;;;;2.08;0.30;;;29.90;46.70;;;;;;5069438;28;19998;-69
2022/07/14 10:03:28;;;;;;;1.25;0.50;;;30.00;47.20;;;;;;5070438;28;20584;-70
2022/07/14 10:05:56;;;;;;;0.85;0.30;;;30.20;47.00;;;;;;5068478;28;20080;-71
2022/07/14 10:08:33;;;;;;;3.95;0.30;;;30.30;46.30;;;;;;5071707;28;20047;-69
2022/07/14 10:11:00;;;;;;;0.70;0.35;;;30.30;46.60;;;;;;5070582;28;20040;-70
2022/07/14 10:13:26;;;;;;;0.47;0.28;;;30.30;45.00;;;;;;5065915;28;20036;-70
2022/07/14 10:15:54;;;;;;;0.40;0.30;;;30.10;44.80;;;;;;5066700;28;20039;-71
2022/07/14 10:18:21;;;;;;;0.55;0.30;;;29.90;45.60;;;;;;5071851;28;22270;-69
2022/07/14 10:20:51;;;;;;;0.43;0.40;;;29.80;46.50;;;;;;5066104;28;20033;-70
2022/07/14 10:23:18;;;;;;;1.45;0.30;;;29.70;46.80;;;;;;5066195;28;20098;-70
2022/07/14 10:25:55;;;;;;;0.95;0.40;;;29.80;45.60;;;;;;5069710;28;20094;-71
2022/07/14 10:28:22;;;;;;;2.80;0.50;;;29.90;47.10;;;;;;5066278;28;20037;-70
2022/07/14 10:31:25;;;;;;;4.55;0.68;;;30.10;48.30;;;;;;5064504;28;20455;-69
2022/07/14 10:34:28;;;;;;;1.77;0.50;;;30.40;47.70;;;;;;5065768;28;20044;-71
2022/07/14 10:37:12;;;;;;;0.52;0.40;;;30.60;46.80;;;;;;5060270;28;20028;-70
2022/07/14 10:39:44;;;;;;;1.85;0.60;;;30.60;47.70;;;;;;5066183;28;20040;-71
2022/07/14 10:42:25;;;;;;;11.27;0.60;;;30.70;45.20;;;;;;5067064;28;20122;-70
2022/07/14 10:44:52;;;;;;;10.40;0.50;;;30.70;43.30;;;;;;5063673;28;20129;-71
2022/07/14 10:47:19;;;;;;;2.38;0.50;;;30.70;44.50;;;;;;5073002;28;20062;-70
2022/07/14 10:50:07;;;;;;;0.63;0.60;;;30.60;43.90;;;;;;5071685;28;20728;-70
2022/07/14 10:52:57;;;;;;;2.10;0.50;;;30.70;44.50;;;;;;5073336;28;20090;-70
2022/07/14 10:55:37;;;;;;;0.80;0.50;;;30.80;47.10;;;;;;5075795;28;20102;-71
2022/07/14 10:58:03;;;;;;;1.67;0.40;;;31.00;46.10;;;;;;5074914;28;20032;-69
2022/07/14 11:00:41;;;;;;;2.60;0.60;;;31.10;42.00;;;;;;5074181;28;20028;-72
2022/07/14 11:03:32;;;;;;;2.50;0.80;;;31.10;44.00;;;;;;5069669;28;20041;-74
2022/07/14 11:06:03;;;;;;;1.75;0.50;;;31.00;41.30;;;;;;5075128;28;20048;-74
2022/07/14 11:08:30;;;;;;;2.05;0.50;;;31.00;42.40;;;;;;5075993;28;20043;-73
2022/07/14 11:10:57;;;;;;;1.45;0.30;;;31.00;42.60;;;;;;5074658;28;20086;-73
2022/07/14 11:13:24;;;;;;;0.93;0.40;;;31.10;42.40;;;;;;5071422;28;20123;-73
2022/07/14 11:16:02;;;;;;;0.85;0.28;;;31.10;43.00;;;;;;5072349;28;20142;-73
2022/07/14 11:18:35;;;;;;;0.63;0.32;;;31.20;44.80;;;;;;5068554;28;20059;-75
2022/07/14 11:21:19;;;;;;;2.65;0.55;;;31.40;42.70;;;;;;5074592;28;20040;-71
2022/07/14 11:23:50;;;;;;;2.83;0.50;;;31.50;41.90;;;;;;5063101;28;20135;-71
2022/07/14 11:26:37;;;;;;;1.48;0.50;;;31.60;42.40;;;;;;5072404;28;20046;-71
2022/07/14 11:29:05;;;;;;;1.52;0.20;;;31.60;42.30;;;;;;5077386;28;20440;-69
2022/07/14 11:31:51;;;;;;;1.20;0.30;;;31.80;42.80;;;;;;5072228;28;20032;-71
2022/07/14 11:37:58;;;;;;;1.95;0.30;;;32.20;41.70;;;;;;5072443;28;20511;-71
2022/07/14 11:40:51;;;;;;;1.95;0.65;;;32.30;40.60;;;;;;5044767;28;20063;-71
2022/07/14 11:43:41;;;;;;;1.70;0.40;;;32.20;42.00;;;;;;5068234;28;20040;-72
2022/07/14 11:46:16;;;;;;;2.05;0.70;;;32.00;40.20;;;;;;5060914;28;20462;-74
2022/07/14 11:48:45;;;;;;;2.72;0.47;;;31.70;40.30;;;;;;5069561;28;20836;-70
2022/07/14 11:51:16;;;;;;;2.05;0.40;;;31.40;40.80;;;;;;5070082;28;20118;-71
2022/07/14 11:53:42;;;;;;;1.50;0.50;;;31.30;41.90;;;;;;5072972;28;20036;-74
2022/07/14 11:56:09;;;;;;;0.70;0.40;;;31.20;41.40;;;;;;5069974;28;20047;-73
2022/07/14 11:58:37;;;;;;;1.63;0.70;;;31.10;40.80;;;;;;5061027;28;20485;-73
2022/07/14 12:01:03;;;;;;;0.47;0.40;;;31.10;40.60;;;;;;5073557;28;20032;-73
2022/07/14 12:03:29;;;;;;;0.93;0.40;;;31.20;40.30;;;;;;5073966;28;20037;-71
2022/07/14 12:05:59;;;;;;;2.47;0.55;;;31.40;40.20;;;;;;5074062;28;20489;-72
2022/07/14 12:08:28;;;;;;;0.70;0.30;;;31.60;40.10;;;;;;5068482;28;20151;-74
2022/07/14 12:10:59;;;;;;;4.45;0.60;;;31.70;39.20;;;;;;5057980;28;20522;-73
2022/07/14 12:13:25;;;;;;;0.75;0.40;;;31.50;39.40;;;;;;5072328;28;20032;-74
2022/07/14 12:15:51;;;;;;;3.50;0.35;;;31.30;39.90;;;;;;5071477;28;20086;-71
2022/07/14 12:18:17;;;;;;;2.35;0.50;;;31.20;40.90;;;;;;5074150;28;20048;-72
2022/07/14 12:20:49;;;;;;;4.88;1.15;;;31.20;41.70;;;;;;5073644;28;20089;-71
2022/07/14 12:23:15;;;;;;;5.00;0.60;;;31.10;41.30;;;;;;5068619;28;20036;-75
2022/07/14 12:25:44;;;;;;;1.67;0.30;;;31.10;41.10;;;;;;5047435;28;20048;-74
2022/07/14 12:28:14;;;;;;;2.70;0.60;;;31.10;40.70;;;;;;5065209;28;20432;-73
2022/07/14 12:30:51;;;;;;;4.40;0.68;;;31.00;40.80;;;;;;5070461;28;20032;-75
2022/07/14 12:33:22;;;;;;;2.08;0.43;;;31.10;40.70;;;;;;5047193;28;20051;-72
2022/07/14 12:35:52;;;;;;;3.53;0.25;;;31.40;40.20;;;;;;5061356;28;20044;-72
2022/07/14 12:38:19;;;;;;;3.22;0.35;;;31.50;38.30;;;;;;5068084;28;20036;-72
2022/07/14 12:40:52;;;;;;;1.20;1.10;;;31.50;38.50;;;;;;5063287;28;20031;-74
2022/07/14 12:43:19;;;;;;;3.92;0.50;;;31.30;38.10;;;;;;5072441;28;20021;-74
2022/07/14 12:46:07;;;;;;;1.73;0.68;;;31.40;40.10;;;;;;5068458;28;20054;-72
2022/07/14 12:48:36;;;;;;;0.40;0.40;;;31.50;38.80;;;;;;5046362;28;20041;-72
2022/07/14 12:51:32;;;;;;;1.67;0.40;;;31.30;38.30;;;;;;5068439;28;20040;-70
2022/07/14 12:54:11;;;;;;;2.53;0.32;;;31.10;38.50;;;;;;5066946;28;20073;-70
2022/07/14 12:56:43;;;;;;;0.93;0.30;;;30.90;39.00;;;;;;5066287;28;20043;-72
2022/07/14 12:59:11;;;;;;;3.80;0.50;;;30.80;38.90;;;;;;5050856;28;21415;-71
2022/07/14 13:01:54;;;;;;;2.63;0.40;;;30.70;38.70;;;;;;5066633;28;20152;-70
2022/07/14 13:04:36;;;;;;;2.17;0.30;;;30.70;38.10;;;;;;5055408;28;20055;-69
2022/07/14 13:07:03;;;;;;;;;;;30.70;40.70;;;;;;5064692;28;20028;-69